Time;durP1;ratioP1;P1;durP2;ratioP2;P2;SDS_P1;SDS_P2;PMS_P1;PMS_P2;Temp;Humidity;BMP_temperature;BMP_pressure;BME280_temperature;BME280_humidity;BME280_pressure;Samples;Min_cycle;Max_cycle;Signal;HPM_P1;HPM_P2
2021/05/09 00:00:52;;;;;;;0.43;0.43;;;14.90;74.40;;;;;;4182953;28;20041;-45
2021/05/09 00:03:13;;;;;;;0.00;0.00;;;14.90;74.50;;;;;;4182786;28;20052;-44
2021/05/09 00:05:35;;;;;;;0.00;0.00;;;14.90;74.60;;;;;;4177394;28;20102;-46
2021/05/09 00:07:55;;;;;;;0.00;0.00;;;14.90;74.60;;;;;;4190820;28;20055;-44
2021/05/09 00:10:18;;;;;;;0.00;0.00;;;14.90;74.60;;;;;;4190768;28;20392;-46
2021/05/09 00:12:39;;;;;;;0.00;0.00;;;14.90;74.60;;;;;;4182179;28;20518;-44
2021/05/09 00:15:01;;;;;;;0.00;0.00;;;14.90;74.60;;;;;;4174843;28;20051;-45
2021/05/09 00:17:21;;;;;;;;;;;14.90;74.60;;;;;;4174941;28;20132;-45
2021/05/09 00:19:43;;;;;;;0.08;0.08;;;14.90;74.70;;;;;;4189768;28;19932;-44
2021/05/09 00:22:04;;;;;;;;;;;14.90;74.70;;;;;;4199052;28;20074;-45
2021/05/09 00:24:25;;;;;;;0.00;0.00;;;14.90;74.90;;;;;;4174383;28;19920;-45
2021/05/09 00:26:45;;;;;;;0.00;0.00;;;14.90;74.80;;;;;;4174065;28;20126;-45
2021/05/09 00:29:06;;;;;;;1.08;1.00;;;14.90;74.90;;;;;;4189337;28;20041;-44
2021/05/09 00:31:28;;;;;;;0.00;0.00;;;14.90;74.90;;;;;;4199757;28;20118;-44
2021/05/09 00:33:49;;;;;;;0.00;0.00;;;14.90;74.90;;;;;;4190976;28;20052;-44
2021/05/09 00:36:10;;;;;;;0.20;0.20;;;14.90;74.90;;;;;;4191067;28;20048;-44
2021/05/09 00:38:30;;;;;;;0.08;0.08;;;14.90;75.00;;;;;;4190634;28;20082;-46
2021/05/09 00:40:54;;;;;;;0.40;0.40;;;14.90;75.00;;;;;;4181004;28;20045;-44
2021/05/09 00:43:15;;;;;;;0.35;0.35;;;14.90;75.00;;;;;;4172943;28;20552;-47
2021/05/09 00:45:36;;;;;;;0.00;0.00;;;14.90;75.00;;;;;;4181260;28;20037;-44
2021/05/09 00:47:58;;;;;;;0.10;0.10;;;14.90;75.10;;;;;;4190673;28;20501;-44
2021/05/09 00:50:20;;;;;;;0.00;0.00;;;14.90;75.00;;;;;;4190521;28;20053;-44
2021/05/09 00:52:43;;;;;;;0.00;0.00;;;14.90;75.10;;;;;;4191036;28;20048;-44
2021/05/09 00:55:06;;;;;;;0.60;0.25;;;14.90;75.10;;;;;;4192401;28;20043;-45
2021/05/09 00:57:26;;;;;;;0.38;0.38;;;14.90;75.20;;;;;;4209336;28;20101;-44
2021/05/09 00:59:50;;;;;;;0.00;0.00;;;14.90;75.20;;;;;;4210111;28;20099;-44
2021/05/09 01:02:13;;;;;;;0.00;0.00;;;14.90;75.20;;;;;;4195634;28;20036;-44
2021/05/09 01:04:36;;;;;;;0.00;0.00;;;14.90;75.30;;;;;;4175879;28;20055;-45
2021/05/09 01:06:56;;;;;;;0.32;0.32;;;14.90;75.30;;;;;;4177311;28;20049;-43
2021/05/09 01:09:19;;;;;;;0.20;0.20;;;14.90;75.30;;;;;;4177395;28;20065;-44
2021/05/09 01:11:42;;;;;;;0.00;0.00;;;14.80;75.30;;;;;;4197471;28;20376;-46
2021/05/09 01:14:03;;;;;;;0.10;0.10;;;14.80;75.40;;;;;;4210382;28;20494;-46
2021/05/09 01:16:24;;;;;;;0.00;0.00;;;14.80;75.40;;;;;;4193344;28;20107;-46
2021/05/09 01:18:45;;;;;;;;;;;14.80;75.40;;;;;;4192461;28;20056;-43
2021/05/09 01:21:07;;;;;;;0.10;0.10;;;14.80;75.50;;;;;;4200191;28;19923;-44
2021/05/09 01:23:28;;;;;;;0.85;0.85;;;14.80;75.50;;;;;;4209964;28;20486;-46
2021/05/09 01:25:49;;;;;;;0.00;0.00;;;14.80;75.50;;;;;;4199531;28;20392;-44
2021/05/09 01:28:11;;;;;;;0.20;0.20;;;14.80;75.60;;;;;;4191991;28;20052;-44
2021/05/09 01:30:32;;;;;;;0.10;0.10;;;14.80;75.60;;;;;;4197906;28;20220;-45
2021/05/09 01:32:53;;;;;;;0.00;0.00;;;14.80;75.70;;;;;;4193456;28;20048;-44
2021/05/09 01:35:14;;;;;;;0.00;0.00;;;14.80;75.70;;;;;;4196600;28;20040;-45
2021/05/09 01:37:36;;;;;;;0.13;0.13;;;14.80;75.70;;;;;;4210122;28;20047;-44
2021/05/09 01:39:57;;;;;;;0.00;0.00;;;14.80;75.80;;;;;;4210157;28;20055;-45
2021/05/09 01:42:18;;;;;;;;;;;14.80;75.80;;;;;;4177113;28;20060;-44
2021/05/09 01:44:48;;;;;;;0.38;0.38;;;14.80;75.90;;;;;;4180458;28;20037;-49
2021/05/09 01:47:09;;;;;;;0.00;0.00;;;14.80;75.90;;;;;;4209995;28;20123;-44
2021/05/09 01:49:30;;;;;;;;;;;14.80;75.90;;;;;;4208783;28;20044;-44
2021/05/09 01:51:51;;;;;;;0.25;0.10;;;14.80;76.00;;;;;;4206325;28;19920;-47
2021/05/09 01:54:13;;;;;;;0.35;0.35;;;14.80;76.00;;;;;;4204220;28;20656;-44
2021/05/09 01:56:35;;;;;;;0.00;0.00;;;14.80;76.00;;;;;;4208319;28;20405;-44
2021/05/09 01:58:57;;;;;;;0.10;0.10;;;14.80;76.10;;;;;;4191855;28;20045;-44
2021/05/09 02:01:25;;;;;;;0.10;0.10;;;14.80;76.90;;;;;;4187696;28;20060;-44
2021/05/09 02:03:58;;;;;;;0.20;0.20;;;14.70;76.10;;;;;;4207964;28;20051;-44
2021/05/09 02:06:22;;;;;;;0.20;0.20;;;14.80;76.20;;;;;;4208348;28;20429;-44
2021/05/09 02:08:43;;;;;;;0.03;0.03;;;14.80;76.10;;;;;;4208716;28;20071;-44
2021/05/09 02:11:18;;;;;;;0.00;0.00;;;14.70;76.10;;;;;;4195881;28;20048;-46
2021/05/09 02:13:40;;;;;;;0.00;0.00;;;14.80;76.20;;;;;;4192835;28;20049;-43
2021/05/09 02:16:10;;;;;;;0.00;0.00;;;14.80;76.30;;;;;;4191086;28;20050;-47
2021/05/09 02:18:31;;;;;;;0.00;0.00;;;14.80;76.20;;;;;;4191130;28;20458;-45
2021/05/09 02:20:52;;;;;;;;;;;14.70;76.20;;;;;;4200276;28;20139;-44
2021/05/09 02:23:13;;;;;;;0.28;0.28;;;14.80;76.40;;;;;;4209270;28;20340;-44
2021/05/09 02:25:35;;;;;;;0.00;0.00;;;14.80;76.30;;;;;;4207730;28;20043;-45
2021/05/09 02:28:00;;;;;;;0.52;0.52;;;14.70;76.20;;;;;;4207794;28;20044;-46
2021/05/09 02:30:22;;;;;;;0.05;0.05;;;14.80;76.30;;;;;;4202312;28;20048;-46
2021/05/09 02:32:44;;;;;;;0.00;0.00;;;14.70;76.30;;;;;;4207926;28;20042;-47
2021/05/09 02:35:05;;;;;;;0.43;0.30;;;14.80;76.40;;;;;;4207668;28;20043;-44
2021/05/09 02:37:26;;;;;;;;;;;14.70;76.30;;;;;;4209457;28;20131;-47
2021/05/09 02:39:47;;;;;;;0.70;0.30;;;14.80;76.50;;;;;;4204603;28;19931;-44
2021/05/09 02:42:08;;;;;;;0.28;0.28;;;14.70;76.40;;;;;;4190651;28;20159;-44
2021/05/09 02:44:30;;;;;;;0.55;0.55;;;14.70;76.50;;;;;;4193277;28;20052;-44
2021/05/09 02:46:52;;;;;;;0.00;0.00;;;14.70;76.50;;;;;;4209243;28;20044;-46
2021/05/09 02:49:13;;;;;;;;;;;14.70;76.50;;;;;;4208237;28;20055;-44
2021/05/09 02:51:34;;;;;;;0.00;0.00;;;14.70;76.60;;;;;;4207441;28;20279;-45
2021/05/09 02:53:55;;;;;;;0.32;0.32;;;14.70;77.40;;;;;;4207972;28;20127;-44
2021/05/09 02:56:16;;;;;;;;;;;14.70;76.60;;;;;;4207767;28;20399;-43
2021/05/09 02:58:38;;;;;;;0.00;0.00;;;14.70;76.60;;;;;;4196084;28;20041;-44
2021/05/09 03:00:59;;;;;;;0.00;0.00;;;14.70;76.60;;;;;;4201034;28;20048;-44
2021/05/09 03:03:21;;;;;;;0.08;0.08;;;14.70;76.70;;;;;;4207540;28;20056;-45
2021/05/09 03:05:42;;;;;;;;;;;14.70;76.90;;;;;;4209490;28;20422;-45
2021/05/09 03:08:04;;;;;;;0.00;0.00;;;14.70;76.80;;;;;;4202551;28;19970;-46
2021/05/09 03:10:25;;;;;;;0.10;0.10;;;14.70;76.60;;;;;;4196179;28;20441;-46
2021/05/09 03:12:46;;;;;;;;;;;14.70;76.60;;;;;;4209290;28;20097;-44
2021/05/09 03:15:09;;;;;;;0.20;0.20;;;14.70;76.60;;;;;;4199503;28;19921;-45
2021/05/09 03:17:32;;;;;;;0.15;0.15;;;14.70;76.60;;;;;;4192092;28;20045;-45
2021/05/09 03:19:53;;;;;;;0.00;0.00;;;14.70;76.60;;;;;;4191648;28;20441;-44
2021/05/09 03:22:14;;;;;;;0.00;0.00;;;14.70;76.70;;;;;;4207916;28;20044;-45
2021/05/09 03:24:35;;;;;;;0.00;0.00;;;14.60;76.50;;;;;;4190815;28;20052;-45
2021/05/09 03:26:56;;;;;;;0.00;0.00;;;14.70;76.60;;;;;;4191933;28;20091;-44
2021/05/09 03:29:17;;;;;;;0.47;0.47;;;14.70;76.60;;;;;;4191662;28;20048;-44
2021/05/09 03:31:38;;;;;;;0.15;0.15;;;14.70;76.60;;;;;;4158654;28;20416;-49
2021/05/09 03:34:00;;;;;;;0.00;0.00;;;14.60;76.50;;;;;;4158852;28;20057;-44
2021/05/09 03:36:22;;;;;;;0.38;0.38;;;14.70;76.60;;;;;;4173923;28;20525;-44
2021/05/09 03:38:43;;;;;;;0.00;0.00;;;14.60;76.60;;;;;;4175290;28;20057;-49
2021/05/09 03:41:03;;;;;;;0.00;0.00;;;14.70;76.60;;;;;;4188119;28;20127;-51
2021/05/09 03:43:25;;;;;;;0.00;0.00;;;14.70;76.60;;;;;;4175073;28;20063;-49
2021/05/09 03:45:45;;;;;;;0.00;0.00;;;14.60;76.50;;;;;;4188223;28;20478;-45
2021/05/09 03:48:07;;;;;;;0.00;0.00;;;14.70;76.60;;;;;;4191292;28;20040;-44
2021/05/09 03:50:28;;;;;;;0.00;0.00;;;14.70;76.60;;;;;;4181897;28;20495;-44
2021/05/09 03:52:50;;;;;;;0.00;0.00;;;14.60;76.60;;;;;;4175535;28;20049;-46
2021/05/09 03:55:11;;;;;;;0.00;0.00;;;14.60;76.60;;;;;;4175145;28;20393;-45
2021/05/09 03:57:32;;;;;;;0.20;0.20;;;14.60;76.60;;;;;;4174988;28;20049;-44
2021/05/09 03:59:53;;;;;;;0.10;0.10;;;14.60;76.60;;;;;;4178077;28;20128;-44
2021/05/09 04:02:14;;;;;;;;;;;14.60;76.70;;;;;;4174082;28;20139;-44
2021/05/09 04:04:35;;;;;;;0.03;0.03;;;14.60;76.70;;;;;;4181384;28;19931;-44
2021/05/09 04:06:57;;;;;;;0.03;0.03;;;14.60;76.70;;;;;;4180345;28;20049;-45
2021/05/09 04:09:18;;;;;;;0.00;0.00;;;14.60;76.70;;;;;;4176633;28;20060;-44
2021/05/09 04:11:39;;;;;;;0.00;0.00;;;14.60;76.70;;;;;;4207969;28;20044;-44
2021/05/09 04:14:00;;;;;;;0.05;0.05;;;14.60;76.80;;;;;;4203749;28;20050;-45
2021/05/09 04:16:21;;;;;;;0.32;0.32;;;14.60;76.80;;;;;;4191226;28;20414;-45
2021/05/09 04:18:42;;;;;;;0.00;0.00;;;14.60;76.80;;;;;;4191179;28;20048;-44
2021/05/09 04:21:03;;;;;;;0.00;0.00;;;14.60;76.80;;;;;;4174555;28;20045;-45
2021/05/09 04:23:25;;;;;;;0.00;0.00;;;14.60;76.80;;;;;;4177246;28;20056;-44
2021/05/09 04:25:47;;;;;;;0.00;0.00;;;14.60;76.80;;;;;;4185935;28;20044;-44
2021/05/09 04:28:08;;;;;;;0.00;0.00;;;14.60;76.70;;;;;;4207571;28;20048;-44
2021/05/09 04:30:30;;;;;;;0.00;0.00;;;14.70;76.90;;;;;;4206988;28;20044;-44
2021/05/09 04:32:57;;;;;;;0.00;0.00;;;14.70;76.90;;;;;;4204339;28;20064;-46
2021/05/09 04:35:18;;;;;;;0.10;0.10;;;14.70;76.80;;;;;;4190802;28;20057;-45
2021/05/09 04:37:39;;;;;;;0.00;0.00;;;14.70;76.70;;;;;;4190929;28;20467;-43
2021/05/09 04:40:01;;;;;;;0.20;0.20;;;14.80;76.90;;;;;;4200250;28;20836;-44
2021/05/09 04:42:22;;;;;;;0.00;0.00;;;14.80;77.00;;;;;;4207693;28;20121;-44
2021/05/09 04:44:43;;;;;;;0.00;0.00;;;14.80;77.00;;;;;;4207229;28;20048;-44
2021/05/09 04:47:05;;;;;;;0.00;0.00;;;14.80;77.00;;;;;;4206333;28;20044;-43
2021/05/09 04:49:27;;;;;;;;;;;14.90;77.00;;;;;;4202188;28;20068;-44
2021/05/09 04:51:47;;;;;;;0.43;0.43;;;15.00;76.90;;;;;;4174312;28;20363;-44
2021/05/09 04:54:09;;;;;;;0.00;0.00;;;15.10;76.40;;;;;;4174842;28;20052;-44
2021/05/09 04:56:31;;;;;;;;;;;15.30;75.70;;;;;;4190156;28;20513;-43
2021/05/09 04:58:52;;;;;;;0.00;0.00;;;15.30;75.10;;;;;;4190819;28;19928;-44
2021/05/09 05:01:13;;;;;;;0.00;0.00;;;15.40;74.90;;;;;;4190457;28;20570;-43
2021/05/09 05:03:34;;;;;;;0.20;0.20;;;15.50;74.70;;;;;;4190782;28;20056;-43
2021/05/09 05:05:56;;;;;;;0.00;0.00;;;15.50;74.50;;;;;;4190452;28;20125;-43
2021/05/09 05:08:16;;;;;;;;;;;15.50;74.40;;;;;;4191275;28;20499;-43
2021/05/09 05:10:37;;;;;;;0.00;0.00;;;15.50;74.30;;;;;;4206660;28;19973;-43
2021/05/09 05:12:59;;;;;;;0.00;0.00;;;15.60;74.30;;;;;;4204017;28;20341;-44
2021/05/09 05:15:20;;;;;;;;;;;15.60;74.20;;;;;;4191167;28;20446;-43
2021/05/09 05:17:41;;;;;;;0.35;0.35;;;15.60;74.30;;;;;;4190993;28;20358;-43
2021/05/09 05:20:02;;;;;;;0.03;0.03;;;15.50;74.20;;;;;;4201548;28;20052;-44
2021/05/09 05:22:23;;;;;;;0.00;0.00;;;15.60;74.10;;;;;;4207064;28;20059;-44
2021/05/09 05:24:44;;;;;;;;;;;15.60;74.00;;;;;;4176567;28;20472;-46
2021/05/09 05:27:05;;;;;;;0.00;0.00;;;15.60;74.10;;;;;;4190823;28;19924;-43
2021/05/09 05:29:27;;;;;;;;;;;15.60;74.20;;;;;;4192180;28;20098;-43
2021/05/09 05:31:50;;;;;;;0.10;0.10;;;15.60;74.20;;;;;;4190663;28;19977;-45
2021/05/09 05:34:11;;;;;;;0.00;0.00;;;15.60;74.20;;;;;;4203204;28;20558;-44
2021/05/09 05:36:32;;;;;;;;;;;15.60;74.10;;;;;;4207789;28;20141;-43
2021/05/09 05:38:53;;;;;;;0.10;0.10;;;15.60;74.10;;;;;;4204217;28;19955;-44
2021/05/09 05:41:14;;;;;;;0.10;0.10;;;15.60;74.00;;;;;;4190663;28;20079;-43
2021/05/09 05:43:36;;;;;;;0.00;0.00;;;15.60;74.00;;;;;;4199637;28;20490;-42
2021/05/09 05:45:59;;;;;;;0.00;0.00;;;15.60;74.10;;;;;;4209991;28;20413;-48
2021/05/09 05:48:20;;;;;;;0.00;0.00;;;15.70;74.20;;;;;;4210137;28;20124;-44
2021/05/09 05:50:41;;;;;;;5.68;0.98;;;15.80;73.90;;;;;;4196361;28;20112;-44
2021/05/09 05:53:03;;;;;;;0.00;0.00;;;15.80;73.80;;;;;;4195059;28;20052;-43
2021/05/09 05:55:24;;;;;;;0.00;0.00;;;15.80;73.80;;;;;;4192632;28;20049;-44
2021/05/09 05:57:45;;;;;;;0.75;0.75;;;15.90;74.10;;;;;;4193429;28;20106;-48
2021/05/09 06:00:07;;;;;;;0.17;0.17;;;15.80;73.70;;;;;;4179092;28;20049;-51
2021/05/09 06:02:29;;;;;;;1.17;1.02;;;15.90;73.70;;;;;;4180260;28;20429;-44
2021/05/09 06:04:50;;;;;;;0.00;0.00;;;15.90;73.60;;;;;;4160026;28;20492;-44
2021/05/09 06:07:12;;;;;;;0.38;0.38;;;15.90;73.70;;;;;;4194594;28;20041;-44
2021/05/09 06:09:34;;;;;;;0.10;0.10;;;15.90;73.70;;;;;;4193073;28;20056;-44
2021/05/09 06:11:54;;;;;;;0.13;0.13;;;15.90;73.90;;;;;;4191335;28;20048;-43
2021/05/09 06:14:15;;;;;;;0.10;0.10;;;15.90;74.00;;;;;;4192883;28;20097;-44
2021/05/09 06:16:45;;;;;;;0.20;0.20;;;15.90;74.20;;;;;;4195089;28;20048;-44
2021/05/09 06:19:06;;;;;;;0.00;0.00;;;15.90;74.00;;;;;;4209608;28;20486;-45
2021/05/09 06:21:27;;;;;;;0.00;0.00;;;15.90;73.80;;;;;;4209069;28;20506;-48
2021/05/09 06:23:49;;;;;;;0.00;0.00;;;15.90;73.60;;;;;;4209424;28;20044;-53
2021/05/09 06:26:10;;;;;;;1.48;1.00;;;15.90;73.40;;;;;;4207426;28;20059;-47
2021/05/09 06:28:31;;;;;;;1.20;1.20;;;15.90;73.60;;;;;;4181823;28;20055;-53
2021/05/09 06:30:52;;;;;;;0.57;0.57;;;16.00;73.60;;;;;;4192464;28;20053;-46
2021/05/09 06:33:12;;;;;;;0.00;0.00;;;16.00;73.50;;;;;;4191712;28;20052;-47
2021/05/09 06:35:37;;;;;;;;;;;16.00;73.50;;;;;;4176464;28;20068;-51
2021/05/09 06:37:59;;;;;;;0.32;0.32;;;16.10;73.40;;;;;;4176150;28;19928;-48
2021/05/09 06:40:20;;;;;;;0.20;0.20;;;16.10;73.40;;;;;;4175863;28;20045;-47
2021/05/09 06:42:41;;;;;;;0.05;0.05;;;16.10;73.40;;;;;;4174394;28;20095;-44
2021/05/09 06:45:04;;;;;;;;;;;16.20;73.40;;;;;;4176515;28;20146;-45
2021/05/09 06:47:25;;;;;;;1.40;0.75;;;16.20;73.40;;;;;;4191263;28;20005;-46
2021/05/09 06:49:46;;;;;;;0.00;0.00;;;16.30;73.40;;;;;;4202733;28;20521;-44
2021/05/09 06:52:08;;;;;;;0.05;0.05;;;16.30;73.40;;;;;;4208377;28;20048;-44
2021/05/09 06:54:30;;;;;;;0.00;0.00;;;16.30;73.40;;;;;;4207571;28;20502;-44
2021/05/09 06:56:53;;;;;;;0.32;0.32;;;16.30;73.40;;;;;;4209062;28;20410;-45
2021/05/09 06:59:14;;;;;;;1.65;1.55;;;16.40;73.50;;;;;;4208773;28;20551;-44
2021/05/09 07:01:35;;;;;;;0.10;0.10;;;16.40;73.50;;;;;;4203618;28;20049;-45
2021/05/09 07:03:56;;;;;;;0.15;0.15;;;16.50;73.60;;;;;;4205702;28;20045;-44
2021/05/09 07:06:17;;;;;;;0.38;0.38;;;16.50;73.40;;;;;;4181687;28;20045;-45
2021/05/09 07:08:39;;;;;;;3.80;2.65;;;16.60;73.40;;;;;;4191964;28;20133;-44
2021/05/09 07:11:01;;;;;;;0.00;0.00;;;16.60;73.40;;;;;;4191774;28;20407;-43
2021/05/09 07:13:22;;;;;;;0.00;0.00;;;16.70;73.40;;;;;;4191753;28;20122;-43
2021/05/09 07:15:44;;;;;;;0.15;0.15;;;16.80;73.40;;;;;;4191676;28;20517;-45
2021/05/09 07:18:07;;;;;;;0.10;0.10;;;16.80;73.30;;;;;;4191860;28;20487;-44
2021/05/09 07:20:30;;;;;;;0.38;0.38;;;16.80;73.50;;;;;;4203765;28;20090;-44
2021/05/09 07:22:53;;;;;;;0.00;0.00;;;16.80;73.50;;;;;;4203297;28;20079;-44
2021/05/09 07:25:15;;;;;;;0.10;0.10;;;16.90;73.40;;;;;;4190903;28;20097;-44
2021/05/09 07:27:36;;;;;;;3.58;1.35;;;16.90;74.10;;;;;;4189048;28;20514;-45
2021/05/09 07:29:57;;;;;;;0.28;0.28;;;16.90;75.10;;;;;;4196014;28;20107;-45
2021/05/09 07:32:18;;;;;;;0.00;0.00;;;17.00;75.20;;;;;;4205902;28;20056;-48
2021/05/09 07:34:39;;;;;;;0.30;0.30;;;17.00;75.00;;;;;;4190339;28;20079;-46
2021/05/09 07:36:59;;;;;;;0.40;0.40;;;17.00;74.90;;;;;;4191704;28;20060;-46
2021/05/09 07:39:20;;;;;;;0.00;0.00;;;17.00;74.90;;;;;;4192522;28;20048;-46
2021/05/09 07:41:42;;;;;;;0.00;0.00;;;17.00;74.80;;;;;;4191668;28;20045;-48
2021/05/09 07:44:05;;;;;;;0.45;0.45;;;17.00;74.90;;;;;;4191357;28;20131;-46
2021/05/09 07:46:26;;;;;;;0.00;0.00;;;17.00;75.00;;;;;;4174917;28;20053;-45
2021/05/09 07:48:47;;;;;;;0.30;0.30;;;16.90;75.00;;;;;;4176679;28;20122;-45
2021/05/09 07:51:08;;;;;;;0.00;0.00;;;16.90;75.10;;;;;;4208206;28;20490;-45
2021/05/09 07:53:29;;;;;;;0.00;0.00;;;16.90;75.30;;;;;;4208089;28;20540;-45
2021/05/09 07:55:50;;;;;;;0.35;0.35;;;16.80;75.30;;;;;;4208105;28;20391;-46
2021/05/09 07:58:17;;;;;;;0.00;0.00;;;16.80;75.30;;;;;;4208249;28;20055;-46
2021/05/09 08:00:38;;;;;;;0.00;0.00;;;16.90;75.60;;;;;;4206384;28;20425;-45
2021/05/09 08:02:59;;;;;;;0.00;0.00;;;16.90;75.90;;;;;;4207459;28;20414;-47
2021/05/09 08:05:21;;;;;;;;;;;16.90;75.90;;;;;;4207663;28;20158;-45
2021/05/09 08:07:49;;;;;;;0.00;0.00;;;16.90;76.00;;;;;;4207829;28;20354;-47
2021/05/09 08:10:10;;;;;;;0.10;0.10;;;16.90;76.00;;;;;;4194313;28;20125;-49
2021/05/09 08:12:31;;;;;;;0.00;0.00;;;16.90;76.00;;;;;;4191461;28;20190;-46
2021/05/09 08:15:03;;;;;;;0.20;0.20;;;16.90;76.20;;;;;;4190309;28;20071;-47
2021/05/09 08:17:24;;;;;;;0.00;0.00;;;16.90;76.40;;;;;;4190397;28;20110;-45
2021/05/09 08:19:45;;;;;;;0.15;0.15;;;16.90;76.50;;;;;;4199358;28;20059;-45
2021/05/09 08:22:06;;;;;;;0.00;0.00;;;16.90;76.60;;;;;;4190879;28;20495;-46
2021/05/09 08:24:27;;;;;;;0.00;0.00;;;16.90;76.50;;;;;;4207629;28;20036;-47
2021/05/09 08:26:48;;;;;;;0.20;0.20;;;16.90;76.50;;;;;;4207602;28;20138;-47
2021/05/09 08:29:09;;;;;;;1.13;1.13;;;17.00;76.70;;;;;;4205643;28;20447;-46
2021/05/09 08:31:31;;;;;;;3.45;0.63;;;17.00;76.60;;;;;;4207343;28;20044;-48
2021/05/09 08:33:53;;;;;;;0.22;0.22;;;17.00;76.50;;;;;;4207854;28;20486;-46
2021/05/09 08:36:14;;;;;;;0.25;0.25;;;17.10;76.40;;;;;;4207959;28;20414;-47
2021/05/09 08:38:35;;;;;;;0.00;0.00;;;17.10;76.30;;;;;;4207709;28;20056;-45
2021/05/09 08:40:58;;;;;;;;;;;17.20;76.30;;;;;;4206475;28;20044;-47
2021/05/09 08:43:19;;;;;;;0.00;0.00;;;17.10;76.40;;;;;;4206154;28;20011;-47
2021/05/09 08:45:39;;;;;;;0.10;0.10;;;17.20;76.30;;;;;;4190698;28;20094;-45
2021/05/09 08:48:02;;;;;;;0.00;0.00;;;17.30;76.20;;;;;;4190779;28;20053;-45
2021/05/09 08:50:25;;;;;;;0.00;0.00;;;17.30;76.10;;;;;;4193652;28;20388;-45
2021/05/09 08:52:48;;;;;;;0.55;0.38;;;17.30;76.10;;;;;;4190844;28;20079;-46
2021/05/09 08:55:11;;;;;;;0.17;0.17;;;17.30;76.00;;;;;;4190938;28;20048;-44
2021/05/09 08:57:32;;;;;;;0.00;0.00;;;17.40;75.90;;;;;;4190890;28;20127;-45
2021/05/09 08:59:53;;;;;;;2.10;1.48;;;17.40;75.80;;;;;;4190902;28;20045;-45
2021/05/09 09:02:15;;;;;;;0.35;0.35;;;17.50;75.80;;;;;;4191015;28;20483;-45
2021/05/09 09:04:45;;;;;;;;;;;17.50;75.70;;;;;;4191340;28;20040;-45
2021/05/09 09:07:06;;;;;;;0.30;0.17;;;17.50;75.60;;;;;;4191236;28;19952;-44
2021/05/09 09:09:26;;;;;;;0.50;0.50;;;17.50;75.50;;;;;;4179765;28;20044;-45
2021/05/09 09:11:53;;;;;;;0.32;0.32;;;17.60;75.40;;;;;;4190965;28;20741;-45
2021/05/09 09:14:14;;;;;;;1.42;1.35;;;17.60;75.30;;;;;;4207189;28;20059;-45
2021/05/09 09:16:35;;;;;;;;;;;17.60;75.20;;;;;;4207924;28;20502;-45
2021/05/09 09:18:56;;;;;;;0.80;0.80;;;17.60;74.90;;;;;;4209019;28;19930;-48
2021/05/09 09:21:26;;;;;;;0.00;0.00;;;17.60;74.80;;;;;;4193683;28;20055;-46
2021/05/09 09:23:49;;;;;;;0.00;0.00;;;17.60;74.80;;;;;;4193619;28;20057;-49
2021/05/09 09:26:30;;;;;;;0.00;0.00;;;17.70;74.60;;;;;;4193725;28;20040;-49
2021/05/09 09:28:52;;;;;;;0.40;0.40;;;17.70;74.60;;;;;;4193732;28;20052;-48
2021/05/09 09:31:13;;;;;;;0.10;0.10;;;17.70;74.60;;;;;;4210381;28;20050;-46
2021/05/09 09:33:34;;;;;;;0.10;0.10;;;17.60;74.60;;;;;;4210330;28;20414;-50
2021/05/09 09:35:59;;;;;;;0.00;0.00;;;17.60;75.00;;;;;;4210516;28;20052;-48
2021/05/09 09:38:22;;;;;;;0.17;0.17;;;17.60;75.30;;;;;;4210306;28;20075;-47
2021/05/09 09:40:44;;;;;;;0.00;0.00;;;17.60;75.40;;;;;;4210638;28;20430;-45
2021/05/09 09:43:17;;;;;;;0.32;0.32;;;17.60;75.80;;;;;;4210119;28;20055;-46
2021/05/09 09:45:39;;;;;;;0.00;0.00;;;17.60;75.80;;;;;;4210082;28;20048;-45
2021/05/09 09:48:02;;;;;;;0.00;0.00;;;17.50;76.30;;;;;;4201820;28;20494;-45
2021/05/09 09:50:37;;;;;;;0.00;0.00;;;17.50;76.90;;;;;;4193594;28;20052;-45
2021/05/09 09:52:59;;;;;;;0.30;0.30;;;17.50;76.90;;;;;;4193057;28;20052;-45
2021/05/09 09:55:21;;;;;;;0.55;0.55;;;17.50;77.00;;;;;;4193502;28;20156;-48
2021/05/09 09:57:42;;;;;;;0.00;0.00;;;17.40;77.10;;;;;;4198615;28;20048;-47
2021/05/09 10:00:08;;;;;;;;;;;17.40;76.90;;;;;;4210482;28;20068;-46
2021/05/09 10:02:29;;;;;;;0.00;0.00;;;17.40;77.10;;;;;;4209997;28;19923;-45
2021/05/09 10:04:52;;;;;;;0.08;0.08;;;17.30;77.10;;;;;;4209825;28;20444;-45
2021/05/09 10:07:13;;;;;;;2.10;1.10;;;17.30;77.20;;;;;;4208419;28;20600;-45
2021/05/09 10:09:34;;;;;;;0.52;0.52;;;17.30;77.30;;;;;;4193244;28;20040;-44
2021/05/09 10:11:57;;;;;;;0.00;0.00;;;17.30;77.40;;;;;;4193227;28;20051;-48
2021/05/09 10:14:18;;;;;;;0.00;0.00;;;17.20;77.40;;;;;;4193320;28;20048;-45
2021/05/09 10:16:41;;;;;;;0.00;0.00;;;17.20;77.50;;;;;;4193384;28;20040;-47
2021/05/09 10:19:04;;;;;;;0.32;0.32;;;17.20;77.80;;;;;;4193101;28;20044;-45
2021/05/09 10:21:27;;;;;;;0.75;0.75;;;17.20;78.00;;;;;;4192895;28;20126;-44
2021/05/09 10:24:14;;;;;;;0.00;0.00;;;17.10;78.30;;;;;;4192834;28;20056;-45
2021/05/09 10:26:48;;;;;;;0.00;0.00;;;17.10;78.40;;;;;;4194779;28;20490;-45
2021/05/09 10:29:29;;;;;;;0.10;0.10;;;17.10;78.60;;;;;;4202267;28;20044;-45
2021/05/09 10:31:51;;;;;;;0.00;0.00;;;17.10;80.20;;;;;;4209188;28;20048;-47
2021/05/09 10:34:11;;;;;;;0.10;0.10;;;17.20;80.80;;;;;;4207164;28;20052;-50
2021/05/09 10:36:40;;;;;;;;;;;17.20;80.40;;;;;;4203204;28;20067;-46
2021/05/09 10:39:14;;;;;;;0.00;0.00;;;17.20;80.40;;;;;;4187207;28;20383;-46
2021/05/09 10:41:35;;;;;;;0.00;0.00;;;17.20;80.10;;;;;;4184085;28;20056;-47
2021/05/09 10:43:57;;;;;;;0.15;0.15;;;17.20;80.70;;;;;;4192674;28;20586;-46
2021/05/09 10:46:18;;;;;;;0.00;0.00;;;17.30;79.60;;;;;;4186728;28;20410;-50
2021/05/09 10:48:39;;;;;;;0.00;0.00;;;17.40;79.30;;;;;;4192466;28;20044;-46
2021/05/09 10:51:28;;;;;;;0.00;0.00;;;17.40;79.30;;;;;;4191440;28;20052;-46
2021/05/09 10:53:49;;;;;;;0.20;0.20;;;17.50;79.20;;;;;;4184424;28;20579;-45
2021/05/09 10:56:31;;;;;;;0.00;0.00;;;17.50;78.90;;;;;;4192397;28;20044;-50
2021/05/09 10:58:54;;;;;;;0.00;0.00;;;17.60;78.90;;;;;;4204599;28;20138;-46
2021/05/09 11:01:20;;;;;;;0.13;0.13;;;17.70;78.70;;;;;;4208264;28;20044;-48
2021/05/09 11:03:49;;;;;;;0.10;0.10;;;17.80;78.40;;;;;;4192495;28;20064;-45
2021/05/09 11:06:12;;;;;;;0.30;0.30;;;17.90;78.20;;;;;;4192245;28;20483;-45
2021/05/09 11:08:55;;;;;;;1.02;1.02;;;17.90;78.90;;;;;;4191936;28;20041;-45
2021/05/09 11:11:20;;;;;;;0.00;0.00;;;18.00;78.20;;;;;;4191654;28;20547;-44
2021/05/09 11:14:18;;;;;;;1.15;1.10;;;18.00;78.20;;;;;;4191243;28;20052;-49
2021/05/09 11:16:42;;;;;;;0.30;0.28;;;18.10;78.10;;;;;;4196322;28;20048;-46
2021/05/09 11:19:07;;;;;;;0.00;0.00;;;18.10;78.10;;;;;;4207936;28;20421;-47
2021/05/09 11:21:30;;;;;;;0.20;0.20;;;18.20;77.90;;;;;;4205838;28;20063;-46
2021/05/09 11:23:51;;;;;;;0.00;0.00;;;18.30;77.80;;;;;;4201655;28;20387;-47
2021/05/09 11:26:30;;;;;;;0.10;0.10;;;18.30;78.00;;;;;;4181799;28;20487;-50
2021/05/09 11:29:04;;;;;;;0.65;0.65;;;18.30;77.70;;;;;;4174755;28;20048;-47
2021/05/09 11:31:26;;;;;;;0.40;0.40;;;18.30;77.30;;;;;;4175155;28;20056;-46
2021/05/09 11:33:53;;;;;;;;;;;18.30;77.50;;;;;;4186508;28;20407;-47
2021/05/09 11:36:24;;;;;;;0.00;0.00;;;18.30;77.50;;;;;;4191533;28;19920;-46
2021/05/09 11:38:45;;;;;;;0.00;0.00;;;18.30;77.60;;;;;;4191022;28;20059;-49
2021/05/09 11:41:06;;;;;;;0.00;0.00;;;18.30;77.40;;;;;;4206403;28;20518;-48
2021/05/09 11:43:27;;;;;;;0.00;0.00;;;18.30;77.20;;;;;;4207818;28;20035;-46
2021/05/09 11:45:49;;;;;;;0.22;0.15;;;18.30;77.40;;;;;;4197912;28;20051;-49
2021/05/09 11:48:10;;;;;;;0.00;0.00;;;18.30;77.30;;;;;;4186590;28;20048;-46
2021/05/09 11:50:32;;;;;;;;;;;18.30;77.00;;;;;;4202259;28;20044;-46
2021/05/09 11:52:53;;;;;;;0.00;0.00;;;18.30;77.00;;;;;;4208155;28;19924;-46
2021/05/09 11:55:15;;;;;;;0.20;0.20;;;18.30;76.80;;;;;;4202488;28;20052;-45
2021/05/09 11:57:36;;;;;;;0.00;0.00;;;18.40;76.80;;;;;;4204770;28;20048;-47
2021/05/09 12:00:00;;;;;;;0.00;0.00;;;18.40;76.70;;;;;;4206354;28;20452;-46
2021/05/09 12:02:34;;;;;;;0.13;0.13;;;18.50;76.30;;;;;;4194254;28;20048;-47
2021/05/09 12:05:00;;;;;;;;;;;18.50;76.00;;;;;;4193581;28;20052;-45
2021/05/09 12:07:23;;;;;;;0.20;0.20;;;18.50;76.00;;;;;;4194444;28;20366;-45
2021/05/09 12:09:50;;;;;;;0.00;0.00;;;18.60;75.80;;;;;;4191250;28;20567;-46
2021/05/09 12:12:18;;;;;;;0.00;0.00;;;18.60;75.60;;;;;;4192086;28;20123;-52
2021/05/09 12:14:39;;;;;;;0.00;0.00;;;18.70;75.50;;;;;;4191552;28;20102;-48
2021/05/09 12:17:00;;;;;;;0.00;0.00;;;18.70;75.40;;;;;;4191440;28;20123;-50
2021/05/09 12:19:29;;;;;;;0.10;0.10;;;18.70;75.10;;;;;;4191229;28;20079;-53
2021/05/09 12:21:57;;;;;;;0.35;0.35;;;18.80;75.20;;;;;;4191059;28;20048;-48
2021/05/09 12:24:19;;;;;;;0.00;0.00;;;18.80;74.80;;;;;;4191141;28;20551;-52
2021/05/09 12:26:56;;;;;;;0.00;0.00;;;18.80;74.80;;;;;;4190883;28;20048;-50
2021/05/09 12:29:18;;;;;;;0.00;0.00;;;18.90;74.70;;;;;;4185321;28;20052;-50
2021/05/09 12:31:39;;;;;;;0.00;0.00;;;19.00;74.60;;;;;;4187837;28;20742;-51